sensor_id;sensor_type;location;lat;lon;timestamp;pressure;altitude;pressure_sealevel;temperature;humidity
10060;BME280;5069;49.306;8.636;2023-01-25T00:01:05;102378.63;;;3.53;100.00
10060;BME280;5069;49.306;8.636;2023-01-25T00:04:06;102369.94;;;3.52;100.00
10060;BME280;5069;49.306;8.636;2023-01-25T00:07:08;102356.91;;;3.54;100.00
10060;BME280;5069;49.306;8.636;2023-01-25T00:10:09;102366.63;;;3.59;100.00
10060;BME280;5069;49.306;8.636;2023-01-25T00:13:11;102359.50;;;3.52;100.00
10060;BME280;5069;49.306;8.636;2023-01-25T00:16:12;102353.31;;;3.49;100.00
10060;BME280;5069;49.306;8.636;2023-01-25T00:19:14;102359.56;;;3.55;100.00
10060;BME280;5069;49.306;8.636;2023-01-25T00:22:15;102345.53;;;3.50;100.00
10060;BME280;5069;49.306;8.636;2023-01-25T00:25:17;102349.91;;;3.51;100.00
10060;BME280;5069;49.306;8.636;2023-01-25T00:28:18;102348.06;;;3.47;100.00
10060;BME280;5069;49.306;8.636;2023-01-25T00:31:36;102344.56;;;3.47;100.00
10060;BME280;5069;49.306;8.636;2023-01-25T00:34:46;102337.47;;;3.41;100.00
10060;BME280;5069;49.306;8.636;2023-01-25T00:37:51;102336.59;;;3.42;100.00
10060;BME280;5069;49.306;8.636;2023-01-25T00:40:53;102328.84;;;3.44;100.00
10060;BME280;5069;49.306;8.636;2023-01-25T00:43:54;102329.94;;;3.53;100.00
10060;BME280;5069;49.306;8.636;2023-01-25T00:46:56;102330.09;;;3.59;100.00
10060;BME280;5069;49.306;8.636;2023-01-25T00:49:57;102323.22;;;3.61;100.00
10060;BME280;5069;49.306;8.636;2023-01-25T00:52:59;102321.44;;;3.60;100.00
10060;BME280;5069;49.306;8.636;2023-01-25T00:56:00;102313.50;;;3.56;100.00
10060;BME280;5069;49.306;8.636;2023-01-25T00:59:03;102317.94;;;3.58;100.00
10060;BME280;5069;49.306;8.636;2023-01-25T01:02:06;102321.44;;;3.60;100.00
10060;BME280;5069;49.306;8.636;2023-01-25T01:05:07;102304.13;;;3.62;100.00
10060;BME280;5069;49.306;8.636;2023-01-25T01:08:11;102301.56;;;3.65;100.00
10060;BME280;5069;49.306;8.636;2023-01-25T01:11:13;102301.56;;;3.64;100.00
10060;BME280;5069;49.306;8.636;2023-01-25T01:14:14;102293.75;;;3.64;100.00
10060;BME280;5069;49.306;8.636;2023-01-25T01:17:16;102304.19;;;3.65;100.00
10060;BME280;5069;49.306;8.636;2023-01-25T01:20:19;102294.38;;;3.55;100.00
10060;BME280;5069;49.306;8.636;2023-01-25T01:23:20;102292.69;;;3.57;100.00
10060;BME280;5069;49.306;8.636;2023-01-25T01:26:22;102290.16;;;3.60;100.00
10060;BME280;5069;49.306;8.636;2023-01-25T01:29:24;102302.25;;;3.57;100.00
10060;BME280;5069;49.306;8.636;2023-01-25T01:32:25;102304.03;;;3.59;100.00
10060;BME280;5069;49.306;8.636;2023-01-25T01:35:28;102308.50;;;3.63;100.00
10060;BME280;5069;49.306;8.636;2023-01-25T01:38:29;102300.69;;;3.63;100.00
10060;BME280;5069;49.306;8.636;2023-01-25T01:41:31;102301.56;;;3.64;100.00
10060;BME280;5069;49.306;8.636;2023-01-25T01:44:51;102311.22;;;3.68;100.00
10060;BME280;5069;49.306;8.636;2023-01-25T01:47:54;102307.72;;;3.67;100.00
10060;BME280;5069;49.306;8.636;2023-01-25T01:51:00;102312.25;;;3.74;100.00
10060;BME280;5069;49.306;8.636;2023-01-25T01:54:09;102302.50;;;3.67;100.00
10060;BME280;5069;49.306;8.636;2023-01-25T01:57:14;102301.66;;;3.68;100.00
10060;BME280;5069;49.306;8.636;2023-01-25T02:00:24;102305.19;;;3.70;100.00
10060;BME280;5069;49.306;8.636;2023-01-25T02:03:28;102303.44;;;3.71;100.00
10060;BME280;5069;49.306;8.636;2023-01-25T02:06:35;102303.59;;;3.76;100.00
10060;BME280;5069;49.306;8.636;2023-01-25T02:09:40;102298.28;;;3.72;100.00
10060;BME280;5069;49.306;8.636;2023-01-25T02:12:42;102299.00;;;3.67;100.00
10060;BME280;5069;49.306;8.636;2023-01-25T02:15:46;102301.63;;;3.67;100.00
10060;BME280;5069;49.306;8.636;2023-01-25T02:18:50;102300.59;;;3.60;100.00
10060;BME280;5069;49.306;8.636;2023-01-25T02:21:55;102302.03;;;3.49;100.00
10060;BME280;5069;49.306;8.636;2023-01-25T02:25:08;102297.75;;;3.51;100.00
10060;BME280;5069;49.306;8.636;2023-01-25T02:28:26;102286.38;;;3.49;100.00
10060;BME280;5069;49.306;8.636;2023-01-25T02:31:30;102301.88;;;3.43;100.00
10060;BME280;5069;49.306;8.636;2023-01-25T02:34:33;102285.19;;;3.37;100.00
10060;BME280;5069;49.306;8.636;2023-01-25T02:37:37;102287.84;;;3.38;100.00
10060;BME280;5069;49.306;8.636;2023-01-25T02:40:45;102274.03;;;3.42;100.00
10060;BME280;5069;49.306;8.636;2023-01-25T02:43:48;102277.53;;;3.43;100.00
10060;BME280;5069;49.306;8.636;2023-01-25T02:46:52;102275.75;;;3.40;100.00
10060;BME280;5069;49.306;8.636;2023-01-25T02:49:53;102279.50;;;3.51;100.00
10060;BME280;5069;49.306;8.636;2023-01-25T02:52:55;102281.13;;;3.46;100.00
10060;BME280;5069;49.306;8.636;2023-01-25T02:55:56;102281.03;;;3.43;100.00
10060;BME280;5069;49.306;8.636;2023-01-25T02:58:58;102287.22;;;3.47;100.00
10060;BME280;5069;49.306;8.636;2023-01-25T03:01:59;102282.75;;;3.43;100.00
10060;BME280;5069;49.306;8.636;2023-01-25T03:05:03;102276.47;;;3.36;100.00
10060;BME280;5069;49.306;8.636;2023-01-25T03:08:05;102278.19;;;3.34;100.00
10060;BME280;5069;49.306;8.636;2023-01-25T03:11:07;102286.00;;;3.34;100.00
10060;BME280;5069;49.306;8.636;2023-01-25T03:14:09;102279.25;;;3.42;100.00
10060;BME280;5069;49.306;8.636;2023-01-25T03:17:11;102273.19;;;3.43;100.00
10060;BME280;5069;49.306;8.636;2023-01-25T03:20:13;102272.88;;;3.29;100.00
10060;BME280;5069;49.306;8.636;2023-01-25T03:23:17;102274.66;;;3.32;100.00
10060;BME280;5069;49.306;8.636;2023-01-25T03:26:20;102269.38;;;3.30;100.00
10060;BME280;5069;49.306;8.636;2023-01-25T03:29:35;102278.31;;;3.39;100.00
10060;BME280;5069;49.306;8.636;2023-01-25T03:32:42;102266.09;;;3.38;100.00
10060;BME280;5069;49.306;8.636;2023-01-25T03:35:54;102264.44;;;3.40;100.00
10060;BME280;5069;49.306;8.636;2023-01-25T03:38:56;102258.13;;;3.30;100.00
10060;BME280;5069;49.306;8.636;2023-01-25T03:41:58;102259.69;;;3.25;100.00
10060;BME280;5069;49.306;8.636;2023-01-25T03:44:59;102271.03;;;3.27;100.00
10060;BME280;5069;49.306;8.636;2023-01-25T03:48:02;102268.44;;;3.27;100.00
10060;BME280;5069;49.306;8.636;2023-01-25T03:51:04;102276.03;;;3.19;100.00
10060;BME280;5069;49.306;8.636;2023-01-25T03:54:05;102277.69;;;3.16;100.00
10060;BME280;5069;49.306;8.636;2023-01-25T03:57:09;102269.13;;;3.20;100.00
10060;BME280;5069;49.306;8.636;2023-01-25T04:00:21;102270.66;;;3.12;100.00
10060;BME280;5069;49.306;8.636;2023-01-25T04:03:31;102269.00;;;3.15;100.00
10060;BME280;5069;49.306;8.636;2023-01-25T04:06:33;102267.94;;;3.07;100.00
10060;BME280;5069;49.306;8.636;2023-01-25T04:09:36;102273.25;;;3.12;100.00
10060;BME280;5069;49.306;8.636;2023-01-25T04:12:40;102269.81;;;3.13;100.00
10060;BME280;5069;49.306;8.636;2023-01-25T04:15:41;102271.38;;;3.06;100.00
10060;BME280;5069;49.306;8.636;2023-01-25T04:18:53;102271.56;;;3.14;100.00
10060;BME280;5069;49.306;8.636;2023-01-25T04:21:54;102276.59;;;3.08;100.00
10060;BME280;5069;49.306;8.636;2023-01-25T04:25:01;102265.16;;;3.01;100.00
10060;BME280;5069;49.306;8.636;2023-01-25T04:28:04;102268.66;;;3.02;100.00
10060;BME280;5069;49.306;8.636;2023-01-25T04:31:06;102259.97;;;3.03;100.00
10060;BME280;5069;49.306;8.636;2023-01-25T04:34:13;102264.44;;;3.07;100.00
10060;BME280;5069;49.306;8.636;2023-01-25T04:37:15;102256.41;;;2.99;100.00
10060;BME280;5069;49.306;8.636;2023-01-25T04:40:25;102267.66;;;2.98;100.00
10060;BME280;5069;49.306;8.636;2023-01-25T04:43:27;102263.16;;;2.92;100.00
10060;BME280;5069;49.306;8.636;2023-01-25T04:46:33;102261.56;;;2.96;100.00
10060;BME280;5069;49.306;8.636;2023-01-25T04:49:35;102259.72;;;2.94;100.00
10060;BME280;5069;49.306;8.636;2023-01-25T04:52:37;102257.97;;;2.92;100.00
10060;BME280;5069;49.306;8.636;2023-01-25T04:55:38;102253.53;;;2.88;100.00
10060;BME280;5069;49.306;8.636;2023-01-25T04:58:42;102254.41;;;2.89;100.00
10060;BME280;5069;49.306;8.636;2023-01-25T05:01:44;102248.13;;;2.82;100.00
10060;BME280;5069;49.306;8.636;2023-01-25T05:04:45;102248.13;;;2.82;100.00
10060;BME280;5069;49.306;8.636;2023-01-25T05:07:47;102241.31;;;2.87;100.00
10060;BME280;5069;49.306;8.636;2023-01-25T05:10:49;102246.31;;;2.78;100.00
10060;BME280;5069;49.306;8.636;2023-01-25T05:14:04;102243.59;;;2.75;100.00
10060;BME280;5069;49.306;8.636;2023-01-25T05:17:07;102240.91;;;2.72;100.00
10060;BME280;5069;49.306;8.636;2023-01-25T05:20:10;102247.78;;;2.70;100.00
10060;BME280;5069;49.306;8.636;2023-01-25T05:23:11;102244.44;;;2.74;100.00
10060;BME280;5069;49.306;8.636;2023-01-25T05:26:13;102238.50;;;2.80;100.00
10060;BME280;5069;49.306;8.636;2023-01-25T05:29:39;102242.81;;;2.78;100.00
10060;BME280;5069;49.306;8.636;2023-01-25T05:32:42;102234.13;;;2.77;100.00
10060;BME280;5069;49.306;8.636;2023-01-25T05:35:43;102241.00;;;2.75;100.00
10060;BME280;5069;49.306;8.636;2023-01-25T05:38:45;102239.03;;;2.68;100.00
10060;BME280;5069;49.306;8.636;2023-01-25T05:41:47;102235.56;;;2.68;100.00
10060;BME280;5069;49.306;8.636;2023-01-25T05:44:49;102231.94;;;2.61;100.00
10060;BME280;5069;49.306;8.636;2023-01-25T05:47:53;102232.09;;;2.67;100.00
10060;BME280;5069;49.306;8.636;2023-01-25T05:50:58;102232.00;;;2.64;100.00
10060;BME280;5069;49.306;8.636;2023-01-25T05:54:00;102217.25;;;2.65;100.00
10060;BME280;5069;49.306;8.636;2023-01-25T05:57:08;102210.22;;;2.61;100.00
10060;BME280;5069;49.306;8.636;2023-01-25T06:00:10;102212.75;;;2.59;100.00
10060;BME280;5069;49.306;8.636;2023-01-25T06:03:15;102200.84;;;2.67;100.00
10060;BME280;5069;49.306;8.636;2023-01-25T06:06:17;102194.59;;;2.62;100.00
10060;BME280;5069;49.306;8.636;2023-01-25T06:09:19;102193.72;;;2.60;100.00
10060;BME280;5069;49.306;8.636;2023-01-25T06:12:21;102204.03;;;2.57;100.00
10060;BME280;5069;49.306;8.636;2023-01-25T06:15:23;102202.41;;;2.62;100.00
10060;BME280;5069;49.306;8.636;2023-01-25T06:18:33;102204.06;;;2.59;100.00
10060;BME280;5069;49.306;8.636;2023-01-25T06:21:58;102200.63;;;2.60;100.00
10060;BME280;5069;49.306;8.636;2023-01-25T06:24:59;102201.63;;;2.65;100.00
10060;BME280;5069;49.306;8.636;2023-01-25T06:28:00;102200.69;;;2.61;100.00
10060;BME280;5069;49.306;8.636;2023-01-25T06:31:10;102205.91;;;2.61;100.00
10060;BME280;5069;49.306;8.636;2023-01-25T06:34:12;102193.81;;;2.65;100.00
10060;BME280;5069;49.306;8.636;2023-01-25T06:37:14;102197.09;;;2.58;100.00
10060;BME280;5069;49.306;8.636;2023-01-25T06:40:15;102201.72;;;2.68;100.00
10060;BME280;5069;49.306;8.636;2023-01-25T06:43:17;102203.25;;;2.60;100.00
10060;BME280;5069;49.306;8.636;2023-01-25T06:46:19;102203.25;;;2.60;100.00
10060;BME280;5069;49.306;8.636;2023-01-25T06:49:20;102212.75;;;2.59;100.00
10060;BME280;5069;49.306;8.636;2023-01-25T06:52:22;102214.53;;;2.60;100.00
10060;BME280;5069;49.306;8.636;2023-01-25T06:55:23;102212.84;;;2.62;100.00
10060;BME280;5069;49.306;8.636;2023-01-25T06:58:26;102200.03;;;2.70;100.00
10060;BME280;5069;49.306;8.636;2023-01-25T07:01:28;102203.41;;;2.66;100.00
10060;BME280;5069;49.306;8.636;2023-01-25T07:04:30;102199.09;;;2.66;100.00
10060;BME280;5069;49.306;8.636;2023-01-25T07:07:32;102198.97;;;2.63;100.00
10060;BME280;5069;49.306;8.636;2023-01-25T07:10:33;102204.84;;;2.55;100.00
10060;BME280;5069;49.306;8.636;2023-01-25T07:13:35;102198.03;;;2.60;100.00
10060;BME280;5069;49.306;8.636;2023-01-25T07:16:36;102203.25;;;2.60;100.00
10060;BME280;5069;49.306;8.636;2023-01-25T07:19:38;102196.97;;;2.53;100.00
10060;BME280;5069;49.306;8.636;2023-01-25T07:22:40;102191.94;;;2.59;100.00
10060;BME280;5069;49.306;8.636;2023-01-25T07:25:49;102190.34;;;2.64;100.00
10060;BME280;5069;49.306;8.636;2023-01-25T07:28:51;102190.97;;;2.56;100.00
10060;BME280;5069;49.306;8.636;2023-01-25T07:31:53;102191.69;;;2.50;100.00
10060;BME280;5069;49.306;8.636;2023-01-25T07:34:55;102200.34;;;2.49;100.00
10060;BME280;5069;49.306;8.636;2023-01-25T07:37:56;102202.81;;;2.44;100.00
10060;BME280;5069;49.306;8.636;2023-01-25T07:40:58;102197.44;;;2.38;100.00
10060;BME280;5069;49.306;8.636;2023-01-25T07:43:59;102204.38;;;2.39;100.00
10060;BME280;5069;49.306;8.636;2023-01-25T07:47:09;102200.06;;;2.40;100.00
10060;BME280;5069;49.306;8.636;2023-01-25T07:50:10;102200.94;;;2.40;100.00
10060;BME280;5069;49.306;8.636;2023-01-25T07:53:12;102198.31;;;2.39;100.00
10060;BME280;5069;49.306;8.636;2023-01-25T07:56:13;102196.56;;;2.38;100.00
10060;BME280;5069;49.306;8.636;2023-01-25T07:59:15;102198.16;;;2.33;100.00
10060;BME280;5069;49.306;8.636;2023-01-25T08:02:16;102189.47;;;2.34;100.00
10060;BME280;5069;49.306;8.636;2023-01-25T08:05:18;102190.34;;;2.34;100.00
10060;BME280;5069;49.306;8.636;2023-01-25T08:08:20;102191.47;;;2.42;100.00
10060;BME280;5069;49.306;8.636;2023-01-25T08:11:24;102187.09;;;2.41;100.00
10060;BME280;5069;49.306;8.636;2023-01-25T08:14:26;102188.09;;;2.46;100.00
10060;BME280;5069;49.306;8.636;2023-01-25T08:17:27;102189.13;;;2.52;100.00
10060;BME280;5069;49.306;8.636;2023-01-25T08:20:32;102184.84;;;2.54;100.00
10060;BME280;5069;49.306;8.636;2023-01-25T08:23:34;102194.44;;;2.55;100.00
10060;BME280;5069;49.306;8.636;2023-01-25T08:26:36;102186.38;;;2.47;100.00
10060;BME280;5069;49.306;8.636;2023-01-25T08:29:38;102182.94;;;2.48;100.00
10060;BME280;5069;49.306;8.636;2023-01-25T08:32:39;102188.28;;;2.53;100.00
10060;BME280;5069;49.306;8.636;2023-01-25T08:35:40;102181.19;;;2.47;100.00
10060;BME280;5069;49.306;8.636;2023-01-25T08:38:42;102186.50;;;2.50;100.00
10060;BME280;5069;49.306;8.636;2023-01-25T08:41:43;102185.59;;;2.49;100.00
10060;BME280;5069;49.306;8.636;2023-01-25T08:44:45;102181.22;;;2.48;100.00
10060;BME280;5069;49.306;8.636;2023-01-25T08:47:47;102179.34;;;2.43;100.00
10060;BME280;5069;49.306;8.636;2023-01-25T08:50:48;102176.81;;;2.46;100.00
10060;BME280;5069;49.306;8.636;2023-01-25T08:53:50;102166.28;;;2.41;100.00
10060;BME280;5069;49.306;8.636;2023-01-25T08:56:51;102166.56;;;2.52;100.00
10060;BME280;5069;49.306;8.636;2023-01-25T08:59:53;102167.03;;;2.69;100.00
10060;BME280;5069;49.306;8.636;2023-01-25T09:02:54;102164.31;;;2.64;100.00
10060;BME280;5069;49.306;8.636;2023-01-25T09:05:56;102163.34;;;2.61;100.00
10060;BME280;5069;49.306;8.636;2023-01-25T09:08:58;102156.31;;;2.58;100.00
10060;BME280;5069;49.306;8.636;2023-01-25T09:12:00;102157.16;;;2.57;100.00
10060;BME280;5069;49.306;8.636;2023-01-25T09:15:02;102163.34;;;2.61;100.00
10060;BME280;5069;49.306;8.636;2023-01-25T09:18:05;102152.81;;;2.56;100.00
10060;BME280;5069;49.306;8.636;2023-01-25T09:21:12;102152.06;;;2.60;100.00
10060;BME280;5069;49.306;8.636;2023-01-25T09:24:14;102145.06;;;2.59;100.00
10060;BME280;5069;49.306;8.636;2023-01-25T09:27:15;102144.75;;;2.47;100.00
10060;BME280;5069;49.306;8.636;2023-01-25T09:30:17;102141.19;;;2.45;100.00
10060;BME280;5069;49.306;8.636;2023-01-25T09:33:31;102146.41;;;2.45;100.00
10060;BME280;5069;49.306;8.636;2023-01-25T09:36:33;102151.06;;;2.55;100.00
10060;BME280;5069;49.306;8.636;2023-01-25T09:39:34;102151.06;;;2.55;100.00
10060;BME280;5069;49.306;8.636;2023-01-25T09:43:03;102158.94;;;2.58;100.00
10060;BME280;5069;49.306;8.636;2023-01-25T09:46:16;102154.72;;;2.62;100.00
10060;BME280;5069;49.306;8.636;2023-01-25T09:49:52;102158.25;;;2.65;100.00
10060;BME280;5069;49.306;8.636;2023-01-25T09:53:08;102149.78;;;2.74;100.00
10060;BME280;5069;49.306;8.636;2023-01-25T09:56:19;102148.78;;;2.67;100.00
10060;BME280;5069;49.306;8.636;2023-01-25T09:59:25;102144.31;;;2.63;100.00
10060;BME280;5069;49.306;8.636;2023-01-25T10:05:57;102145.28;;;2.67;100.00
10060;BME280;5069;49.306;8.636;2023-01-25T10:09:06;102143.63;;;2.70;100.00
10060;BME280;5069;49.306;8.636;2023-01-25T10:15:18;102129.78;;;2.71;100.00
10060;BME280;5069;49.306;8.636;2023-01-25T10:21:39;102132.59;;;2.79;100.00
10060;BME280;5069;49.306;8.636;2023-01-25T10:25:06;102119.47;;;2.76;100.00
10060;BME280;5069;49.306;8.636;2023-01-25T10:31:46;102122.44;;;2.89;100.00
10060;BME280;5069;49.306;8.636;2023-01-25T10:34:56;102111.16;;;2.90;100.00
10060;BME280;5069;49.306;8.636;2023-01-25T10:38:04;102112.59;;;2.79;100.00
10060;BME280;5069;49.306;8.636;2023-01-25T10:44:28;102107.13;;;2.69;100.00
10060;BME280;5069;49.306;8.636;2023-01-25T10:47:35;102104.63;;;2.72;100.00
10060;BME280;5069;49.306;8.636;2023-01-25T10:53:38;102089.22;;;2.81;100.00
10060;BME280;5069;49.306;8.636;2023-01-25T10:56:41;102091.94;;;2.85;100.00
10060;BME280;5069;49.306;8.636;2023-01-25T10:59:45;102093.53;;;2.80;100.00
10060;BME280;5069;49.306;8.636;2023-01-25T11:02:48;102082.09;;;2.74;100.00
10060;BME280;5069;49.306;8.636;2023-01-25T11:05:53;102075.19;;;2.76;100.00
10060;BME280;5069;49.306;8.636;2023-01-25T11:08:55;102072.69;;;2.80;100.00
10060;BME280;5069;49.306;8.636;2023-01-25T11:11:58;102067.59;;;2.83;100.00
10060;BME280;5069;49.306;8.636;2023-01-25T11:15:21;102067.59;;;2.83;100.00
10060;BME280;5069;49.306;8.636;2023-01-25T11:18:28;102052.81;;;2.82;100.00
10060;BME280;5069;49.306;8.636;2023-01-25T11:21:33;102042.63;;;2.93;100.00
10060;BME280;5069;49.306;8.636;2023-01-25T11:24:35;102036.53;;;2.92;100.00
10060;BME280;5069;49.306;8.636;2023-01-25T11:27:37;102036.53;;;2.92;100.00
10060;BME280;5069;49.306;8.636;2023-01-25T11:30:38;102035.16;;;3.07;100.00
10060;BME280;5069;49.306;8.636;2023-01-25T11:33:40;102033.44;;;3.09;100.00
10060;BME280;5069;49.306;8.636;2023-01-25T11:40:14;102011.84;;;3.13;100.00
10060;BME280;5069;49.306;8.636;2023-01-25T11:46:53;102007.63;;;3.18;100.00
10060;BME280;5069;49.306;8.636;2023-01-25T11:50:01;101995.47;;;3.20;100.00
10060;BME280;5069;49.306;8.636;2023-01-25T11:53:32;101982.31;;;3.14;100.00
10060;BME280;5069;49.306;8.636;2023-01-25T12:00:14;101967.91;;;3.31;100.00
10060;BME280;5069;49.306;8.636;2023-01-25T12:07:04;101964.34;;;3.26;100.00
10060;BME280;5069;49.306;8.636;2023-01-25T12:14:20;101943.56;;;3.29;100.00
10060;BME280;5069;49.306;8.636;2023-01-25T12:21:12;101930.63;;;3.33;100.00
10060;BME280;5069;49.306;8.636;2023-01-25T12:24:36;101927.09;;;3.30;100.00
10060;BME280;5069;49.306;8.636;2023-01-25T12:28:01;101914.78;;;3.23;100.00
10060;BME280;5069;49.306;8.636;2023-01-25T12:31:25;101910.53;;;3.28;100.00
10060;BME280;5069;49.306;8.636;2023-01-25T12:34:36;101904.69;;;3.40;100.00
10060;BME280;5069;49.306;8.636;2023-01-25T12:37:40;101893.41;;;3.42;100.00
10060;BME280;5069;49.306;8.636;2023-01-25T12:40:48;101887.06;;;3.28;100.00
10060;BME280;5069;49.306;8.636;2023-01-25T12:44:00;101894.00;;;3.27;100.00
10060;BME280;5069;49.306;8.636;2023-01-25T12:47:18;101880.94;;;3.26;100.00
10060;BME280;5069;49.306;8.636;2023-01-25T12:50:27;101868.81;;;3.28;100.00
10060;BME280;5069;49.306;8.636;2023-01-25T12:53:39;101865.22;;;3.21;100.00
10060;BME280;5069;49.306;8.636;2023-01-25T12:56:48;101858.56;;;3.37;100.00
10060;BME280;5069;49.306;8.636;2023-01-25T13:00:04;101849.56;;;3.66;100.00
10060;BME280;5069;49.306;8.636;2023-01-25T13:03:20;101848.72;;;3.67;100.00
10060;BME280;5069;49.306;8.636;2023-01-25T13:09:40;101848.22;;;3.40;100.00
10060;BME280;5069;49.306;8.636;2023-01-25T13:12:52;101850.91;;;3.45;100.00
10060;BME280;5069;49.306;8.636;2023-01-25T13:15:54;101850.13;;;3.50;100.00
10060;BME280;5069;49.306;8.636;2023-01-25T13:18:57;101838.97;;;3.59;100.00
10060;BME280;5069;49.306;8.636;2023-01-25T13:21:59;101827.69;;;3.58;100.00
10060;BME280;5069;49.306;8.636;2023-01-25T13:28:39;101815.16;;;3.39;100.00
10060;BME280;5069;49.306;8.636;2023-01-25T13:31:44;101822.16;;;3.40;100.00
10060;BME280;5069;49.306;8.636;2023-01-25T13:41:17;101831.16;;;3.57;100.00
10060;BME280;5069;49.306;8.636;2023-01-25T13:44:24;101825.13;;;3.61;100.00
10060;BME280;5069;49.306;8.636;2023-01-25T13:47:31;101811.38;;;3.71;100.00
10060;BME280;5069;49.306;8.636;2023-01-25T13:50:38;101809.59;;;3.67;100.00
10060;BME280;5069;49.306;8.636;2023-01-25T13:53:40;101803.66;;;3.78;100.00
10060;BME280;5069;49.306;8.636;2023-01-25T13:56:43;101814.81;;;3.67;100.00
10060;BME280;5069;49.306;8.636;2023-01-25T13:59:45;101810.47;;;3.68;100.00
10060;BME280;5069;49.306;8.636;2023-01-25T14:02:53;101806.00;;;3.61;100.00
10060;BME280;5069;49.306;8.636;2023-01-25T14:05:57;101793.69;;;3.54;100.00
10060;BME280;5069;49.306;8.636;2023-01-25T14:09:02;101782.31;;;3.47;100.00
10060;BME280;5069;49.306;8.636;2023-01-25T14:12:09;101774.38;;;3.43;100.00
10060;BME280;5069;49.306;8.636;2023-01-25T14:15:25;101778.81;;;3.48;100.00
10060;BME280;5069;49.306;8.636;2023-01-25T14:18:34;101775.22;;;3.40;100.00
10060;BME280;5069;49.306;8.636;2023-01-25T14:21:37;101764.81;;;3.40;100.00
10060;BME280;5069;49.306;8.636;2023-01-25T14:24:39;101764.06;;;3.49;100.00
10060;BME280;5069;49.306;8.636;2023-01-25T14:30:42;101757.75;;;3.36;100.00
10060;BME280;5069;49.306;8.636;2023-01-25T14:33:44;101751.69;;;3.37;100.00
10060;BME280;5069;49.306;8.636;2023-01-25T14:37:11;101751.06;;;3.50;100.00
10060;BME280;5069;49.306;8.636;2023-01-25T14:40:19;101752.72;;;3.45;100.00
10060;BME280;5069;49.306;8.636;2023-01-25T14:43:22;101745.75;;;3.44;100.00
10060;BME280;5069;49.306;8.636;2023-01-25T14:46:28;101745.94;;;3.56;100.00
10060;BME280;5069;49.306;8.636;2023-01-25T14:49:30;101742.28;;;3.45;100.00
10060;BME280;5069;49.306;8.636;2023-01-25T14:52:31;101737.00;;;3.42;100.00
10060;BME280;5069;49.306;8.636;2023-01-25T14:55:34;101735.19;;;3.35;100.00
10060;BME280;5069;49.306;8.636;2023-01-25T14:58:36;101735.19;;;3.35;100.00
10060;BME280;5069;49.306;8.636;2023-01-25T15:01:39;101736.91;;;3.35;100.00
10060;BME280;5069;49.306;8.636;2023-01-25T15:05:04;101735.94;;;3.31;100.00
10060;BME280;5069;49.306;8.636;2023-01-25T15:08:29;101734.34;;;3.38;100.00
10060;BME280;5069;49.306;8.636;2023-01-25T15:11:38;101723.09;;;3.40;100.00
10060;BME280;5069;49.306;8.636;2023-01-25T15:14:47;101721.34;;;3.39;100.00
10060;BME280;5069;49.306;8.636;2023-01-25T15:17:49;101708.22;;;3.35;100.00
10060;BME280;5069;49.306;8.636;2023-01-25T15:20:51;101717.78;;;3.34;100.00
10060;BME280;5069;49.306;8.636;2023-01-25T15:23:54;101709.03;;;3.32;100.00
10060;BME280;5069;49.306;8.636;2023-01-25T15:26:55;101700.28;;;3.27;100.00
10060;BME280;5069;49.306;8.636;2023-01-25T15:29:57;101696.75;;;3.23;100.00
10060;BME280;5069;49.306;8.636;2023-01-25T15:33:00;101678.53;;;3.26;100.00
10060;BME280;5069;49.306;8.636;2023-01-25T15:36:02;101681.19;;;3.28;100.00
10060;BME280;5069;49.306;8.636;2023-01-25T15:39:04;101676.00;;;3.31;100.00
10060;BME280;5069;49.306;8.636;2023-01-25T15:42:07;101674.22;;;3.27;100.00
10060;BME280;5069;49.306;8.636;2023-01-25T15:45:09;101667.31;;;3.29;100.00
10060;BME280;5069;49.306;8.636;2023-01-25T15:48:14;101668.03;;;3.20;100.00
10060;BME280;5069;49.306;8.636;2023-01-25T15:51:16;101671.56;;;3.24;100.00
10060;BME280;5069;49.306;8.636;2023-01-25T15:54:18;101663.66;;;3.18;100.00
10060;BME280;5069;49.306;8.636;2023-01-25T15:57:29;101677.47;;;3.14;100.00
10060;BME280;5069;49.306;8.636;2023-01-25T16:00:31;101676.59;;;3.15;100.00
10060;BME280;5069;49.306;8.636;2023-01-25T16:03:33;101681.72;;;3.07;100.00
10060;BME280;5069;49.306;8.636;2023-01-25T16:06:45;101681.56;;;3.00;100.00
10060;BME280;5069;49.306;8.636;2023-01-25T16:09:47;101674.53;;;2.94;100.00
10060;BME280;5069;49.306;8.636;2023-01-25T16:12:50;101668.34;;;2.90;100.00
10060;BME280;5069;49.306;8.636;2023-01-25T16:15:52;101664.88;;;2.88;100.00
10060;BME280;5069;49.306;8.636;2023-01-25T16:18:56;101659.78;;;2.95;100.00
10060;BME280;5069;49.306;8.636;2023-01-25T16:21:57;101660.66;;;2.95;100.00
10060;BME280;5069;49.306;8.636;2023-01-25T16:24:59;101659.13;;;3.08;100.00
10060;BME280;5069;49.306;8.636;2023-01-25T16:28:01;101666.94;;;3.08;100.00
10060;BME280;5069;49.306;8.636;2023-01-25T16:31:02;101672.13;;;3.08;100.00
10060;BME280;5069;49.306;8.636;2023-01-25T16:34:04;101659.09;;;3.06;100.00
10060;BME280;5069;49.306;8.636;2023-01-25T16:37:05;101654.59;;;2.98;100.00
10060;BME280;5069;49.306;8.636;2023-01-25T16:40:33;101663.94;;;2.86;100.00
10060;BME280;5069;49.306;8.636;2023-01-25T16:43:40;101656.88;;;2.78;100.00
10060;BME280;5069;49.306;8.636;2023-01-25T16:46:43;101654.91;;;2.66;100.00
10060;BME280;5069;49.306;8.636;2023-01-25T16:49:45;101649.69;;;2.65;100.00
10060;BME280;5069;49.306;8.636;2023-01-25T16:52:47;101660.16;;;2.69;100.00
10060;BME280;5069;49.306;8.636;2023-01-25T16:55:51;101651.69;;;2.81;100.00
10060;BME280;5069;49.306;8.636;2023-01-25T16:58:54;101654.34;;;2.82;100.00
10060;BME280;5069;49.306;8.636;2023-01-25T17:01:56;101648.25;;;2.82;100.00
10060;BME280;5069;49.306;8.636;2023-01-25T17:04:58;101652.72;;;2.90;100.00
10060;BME280;5069;49.306;8.636;2023-01-25T17:07:59;101639.09;;;3.04;100.00
10060;BME280;5069;49.306;8.636;2023-01-25T17:11:03;101631.50;;;3.17;100.00
10060;BME280;5069;49.306;8.636;2023-01-25T17:14:05;101637.53;;;3.15;100.00
10060;BME280;5069;49.306;8.636;2023-01-25T17:17:06;101633.44;;;3.29;100.00